Terminal Aerodrome Forecast
Issued by NWS

Home | Current Version | Previous Version | Text Only | Print | Product List | Glossary On
Versions: 1 2 3 4 5 6 7 8 9 10 11 12 13 14 15 16 17
195
FTUS46 KMTR 262339
TAFSJC
TAF
KSJC 262339Z 2700/2724 16008KT P6SM SCT030 BKN040 OVC090
     FM270300 17005KT P6SM -SHRA OVC035
     FM270700 26006KT P6SM VCSH BKN030 OVC050
     FM271400 29005KT P6SM BKN025
     FM271700 31008KT P6SM BKN200
     FM272100 30015KT P6SM FEW035 SCT200=

USA.gov is the U.S. government's official web portal to all federal, state and local government web resources and services.